createdAt,value
2022-12-27T00:01:32.300Z,98.30
2022-12-27T00:03:59.502Z,98.30
2022-12-27T00:06:27.322Z,98.30
2022-12-27T00:08:55.065Z,98.30
2022-12-27T00:11:25.345Z,98.30
2022-12-27T00:13:52.344Z,98.30
2022-12-27T00:16:20.902Z,98.30
2022-12-27T00:18:49.107Z,98.30
2022-12-27T00:21:17.015Z,98.30
2022-12-27T00:23:50.876Z,98.30
2022-12-27T00:26:21.490Z,97.60
2022-12-27T00:28:48.823Z,94.80
2022-12-27T00:31:16.556Z,95.60
2022-12-27T00:33:46.666Z,96.10
2022-12-27T00:36:16.678Z,96.00
2022-12-27T00:38:43.833Z,96.10
2022-12-27T00:41:11.319Z,96.00
2022-12-27T00:43:37.966Z,96.20
2022-12-27T00:46:05.678Z,96.30
2022-12-27T00:48:32.655Z,97.60
2022-12-27T00:51:01.420Z,97.50
2022-12-27T00:53:29.647Z,96.30
2022-12-27T00:55:57.188Z,94.30
2022-12-27T00:58:24.340Z,94.10
2022-12-27T01:00:51.769Z,95.40
2022-12-27T01:03:19.658Z,96.20
2022-12-27T01:05:46.765Z,97.00
2022-12-27T01:08:14.662Z,97.40
2022-12-27T01:10:41.827Z,97.60
2022-12-27T01:13:08.880Z,97.30
2022-12-27T01:15:35.624Z,96.80
2022-12-27T01:18:02.305Z,96.00
2022-12-27T01:20:28.961Z,96.70
2022-12-27T01:22:55.590Z,96.80
2022-12-27T01:25:22.341Z,96.90
2022-12-27T01:27:48.958Z,96.50
2022-12-27T01:30:15.678Z,96.00
2022-12-27T01:32:42.367Z,96.10
2022-12-27T01:35:09.278Z,96.10
2022-12-27T01:37:35.985Z,95.20
2022-12-27T01:40:02.628Z,94.50
2022-12-27T01:42:47.881Z,94.30
2022-12-27T01:45:29.229Z,94.50
2022-12-27T01:48:04.495Z,94.30
2022-12-27T01:50:40.510Z,94.10
2022-12-27T01:53:23.031Z,93.70
2022-12-27T01:56:02.619Z,94.90
2022-12-27T01:58:46.524Z,95.40
2022-12-27T02:01:20.661Z,95.10
2022-12-27T02:04:03.196Z,94.60
2022-12-27T02:06:32.565Z,94.30
2022-12-27T02:09:21.691Z,95.50
2022-12-27T02:11:53.010Z,95.50
2022-12-27T02:14:28.110Z,96.00
2022-12-27T02:16:58.287Z,96.30
2022-12-27T02:19:41.716Z,96.00
2022-12-27T02:23:04.637Z,96.40
2022-12-27T02:25:51.007Z,96.70
2022-12-27T02:28:50.580Z,96.90
2022-12-27T02:31:24.625Z,96.90
2022-12-27T02:33:53.018Z,95.80
2022-12-27T02:36:26.319Z,96.90
2022-12-27T02:38:57.271Z,96.10
2022-12-27T02:41:43.467Z,96.60
2022-12-27T02:44:29.880Z,96.50
2022-12-27T02:47:16.052Z,96.30
2022-12-27T02:50:02.695Z,96.60
2022-12-27T02:53:00.419Z,95.70
2022-12-27T02:56:14.350Z,96.00
2022-12-27T02:59:25.427Z,95.90
2022-12-27T03:02:29.589Z,95.50
2022-12-27T03:05:12.437Z,96.30
2022-12-27T03:08:06.223Z,96.20
2022-12-27T03:11:05.577Z,96.20
2022-12-27T03:14:05.270Z,97.10
2022-12-27T03:16:37.870Z,97.00
2022-12-27T03:19:40.181Z,97.20
2022-12-27T03:22:27.913Z,96.80
2022-12-27T03:25:15.319Z,97.40
2022-12-27T03:27:45.176Z,98.10
2022-12-27T03:30:31.363Z,98.30
2022-12-27T03:33:15.446Z,98.10
2022-12-27T03:36:10.624Z,97.60
2022-12-27T03:38:47.558Z,97.70
2022-12-27T03:41:39.976Z,97.70
2022-12-27T03:44:24.151Z,97.80
2022-12-27T03:46:59.674Z,98.10
2022-12-27T03:49:55.900Z,98.10
2022-12-27T03:52:32.141Z,98.10
2022-12-27T03:54:59.588Z,98.30
2022-12-27T03:57:27.528Z,98.30
2022-12-27T03:59:54.322Z,98.30
2022-12-27T04:02:21.180Z,98.30
2022-12-27T04:04:50.021Z,98.30
2022-12-27T04:07:16.853Z,98.30
2022-12-27T04:10:02.227Z,98.30
2022-12-27T04:12:47.720Z,98.30
2022-12-27T04:15:33.239Z,98.30
2022-12-27T04:18:18.774Z,98.30
2022-12-27T04:21:04.210Z,98.30
2022-12-27T04:23:49.770Z,98.30
2022-12-27T04:26:35.286Z,98.30
2022-12-27T04:29:20.738Z,98.30
2022-12-27T04:32:06.229Z,98.30
2022-12-27T04:34:45.214Z,98.30
2022-12-27T04:37:17.702Z,98.30
2022-12-27T04:40:05.705Z,98.30
2022-12-27T04:42:51.071Z,98.30
2022-12-27T04:45:37.654Z,98.30
2022-12-27T04:48:23.866Z,98.30
2022-12-27T04:51:09.317Z,98.30
2022-12-27T04:53:54.677Z,98.30
2022-12-27T04:56:21.375Z,98.30
2022-12-27T04:59:06.698Z,98.30
2022-12-27T05:01:52.152Z,98.30
2022-12-27T05:04:18.939Z,98.30
2022-12-27T05:06:45.586Z,98.30
2022-12-27T05:09:30.920Z,98.30
2022-12-27T05:12:16.299Z,98.30
2022-12-27T05:14:43.007Z,98.30
2022-12-27T05:17:09.786Z,98.30
2022-12-27T05:19:36.509Z,98.30
2022-12-27T05:22:21.765Z,98.30
2022-12-27T05:25:07.283Z,98.30
2022-12-27T05:27:33.931Z,98.30
2022-12-27T05:30:01.544Z,98.30
2022-12-27T05:32:28.171Z,98.30
2022-12-27T05:34:54.843Z,98.30
2022-12-27T05:37:21.455Z,98.30
2022-12-27T05:39:48.193Z,98.30
2022-12-27T05:42:14.833Z,98.30
2022-12-27T05:44:41.455Z,98.30
2022-12-27T05:47:08.094Z,98.30
2022-12-27T05:49:34.761Z,98.30
2022-12-27T05:52:01.409Z,98.30
2022-12-27T05:54:28.175Z,98.30
2022-12-27T05:56:55.333Z,98.30
2022-12-27T05:59:22.007Z,98.30
2022-12-27T06:01:48.831Z,98.30
2022-12-27T06:04:16.088Z,98.30
2022-12-27T06:06:42.748Z,98.30
2022-12-27T06:09:09.489Z,98.30
2022-12-27T06:11:36.118Z,98.30
2022-12-27T06:14:02.744Z,98.30
2022-12-27T06:16:29.434Z,98.30
2022-12-27T06:18:56.069Z,98.30
2022-12-27T06:21:22.901Z,98.30
2022-12-27T06:23:50.135Z,98.30
2022-12-27T06:26:25.718Z,98.30
2022-12-27T06:28:52.795Z,98.30
2022-12-27T06:31:20.757Z,98.30
2022-12-27T06:33:49.711Z,98.30
2022-12-27T06:36:19.486Z,98.30
2022-12-27T06:38:46.474Z,98.30
2022-12-27T06:41:17.106Z,98.30
2022-12-27T06:43:44.585Z,98.30
2022-12-27T06:46:17.641Z,98.30
2022-12-27T06:48:46.390Z,98.30
2022-12-27T06:51:14.669Z,98.30
2022-12-27T06:53:41.697Z,98.30
2022-12-27T06:56:11.517Z,98.30
2022-12-27T06:58:38.527Z,98.30
2022-12-27T07:01:15.278Z,98.30
2022-12-27T07:03:42.103Z,98.30
2022-12-27T07:06:13.863Z,98.30
2022-12-27T07:08:40.581Z,98.30
2022-12-27T07:11:10.266Z,98.30
2022-12-27T07:13:39.849Z,98.30
2022-12-27T07:16:12.942Z,98.30
2022-12-27T07:18:40.287Z,98.30
2022-12-27T07:21:13.868Z,98.30
2022-12-27T07:23:41.031Z,98.30
2022-12-27T07:26:13.620Z,98.30
2022-12-27T07:28:41.011Z,98.30
2022-12-27T07:31:10.474Z,98.30
2022-12-27T07:33:38.228Z,98.30
2022-12-27T07:36:07.301Z,98.30
2022-12-27T07:38:34.071Z,98.30
2022-12-27T07:41:01.774Z,98.30
2022-12-27T07:43:35.634Z,98.30
2022-12-27T07:46:19.954Z,98.30
2022-12-27T07:48:47.702Z,98.30
2022-12-27T07:51:15.962Z,98.30
2022-12-27T07:53:42.997Z,98.30
2022-12-27T07:56:12.155Z,98.30
2022-12-27T07:58:40.932Z,98.30
2022-12-27T08:01:09.049Z,98.30
2022-12-27T08:03:36.676Z,98.30
2022-12-27T08:06:04.333Z,98.30
2022-12-27T08:08:42.991Z,98.30
2022-12-27T08:11:09.894Z,98.30
2022-12-27T08:13:36.898Z,98.30
2022-12-27T08:16:04.672Z,98.30
2022-12-27T08:18:32.975Z,98.30
2022-12-27T08:20:59.873Z,98.30
2022-12-27T08:23:26.512Z,98.30
2022-12-27T08:25:53.125Z,98.30
2022-12-27T08:28:19.784Z,98.30
2022-12-27T08:30:47.405Z,98.30
2022-12-27T08:33:15.230Z,98.30
2022-12-27T08:35:54.318Z,98.30
2022-12-27T08:38:21.910Z,98.00
2022-12-27T08:40:48.636Z,98.00
2022-12-27T08:43:15.476Z,97.90
2022-12-27T08:45:42.288Z,98.00
2022-12-27T08:48:09.096Z,98.10
2022-12-27T08:50:35.847Z,98.30
2022-12-27T08:53:03.952Z,98.30
2022-12-27T08:55:31.669Z,98.30
2022-12-27T08:58:03.707Z,98.10
2022-12-27T09:00:31.411Z,97.70
2022-12-27T09:02:58.960Z,97.50
2022-12-27T09:05:26.976Z,97.50
2022-12-27T09:07:53.651Z,97.90
2022-12-27T09:10:22.076Z,98.30
2022-12-27T09:12:48.748Z,98.30
2022-12-27T09:15:15.570Z,98.30
2022-12-27T09:17:42.409Z,98.30
2022-12-27T09:20:57.318Z,98.30
2022-12-27T09:23:24.253Z,98.30
2022-12-27T09:25:50.921Z,98.30
2022-12-27T09:28:18.543Z,98.30
2022-12-27T09:30:45.239Z,97.70
2022-12-27T09:33:11.906Z,97.80
2022-12-27T09:35:38.826Z,97.30
2022-12-27T09:38:05.953Z,97.10
2022-12-27T09:40:32.681Z,97.00
2022-12-27T09:43:27.198Z,96.90
2022-12-27T09:45:57.365Z,96.80
2022-12-27T09:48:33.847Z,96.00
2022-12-27T09:51:17.852Z,95.50
2022-12-27T09:53:51.905Z,95.20
2022-12-27T09:56:47.380Z,94.70
2022-12-27T09:59:38.315Z,94.10
2022-12-27T10:02:19.411Z,94.10
2022-12-27T10:05:18.670Z,93.80
2022-12-27T10:08:01.732Z,93.10
2022-12-27T10:10:40.453Z,93.30
2022-12-27T10:13:23.388Z,92.70
2022-12-27T10:16:22.900Z,92.70
2022-12-27T10:19:13.624Z,92.70
2022-12-27T10:21:58.516Z,83.60
2022-12-27T10:24:38.958Z,75.20
2022-12-27T10:27:14.948Z,69.00
2022-12-27T10:29:42.573Z,65.30
2022-12-27T10:32:13.806Z,63.30
2022-12-27T10:34:40.551Z,60.90
2022-12-27T10:37:13.792Z,59.70
2022-12-27T10:39:40.508Z,60.60
2022-12-27T10:42:32.152Z,60.80
2022-12-27T10:45:28.310Z,59.90
2022-12-27T10:48:32.162Z,59.10
2022-12-27T10:51:10.575Z,58.90
2022-12-27T10:53:46.307Z,60.10
2022-12-27T10:56:49.901Z,60.50
2022-12-27T10:59:24.289Z,61.60
2022-12-27T11:02:00.113Z,62.00
2022-12-27T11:04:27.587Z,61.10
2022-12-27T11:07:03.081Z,61.20
2022-12-27T11:09:32.929Z,64.50
2022-12-27T11:12:19.662Z,67.40
2022-12-27T11:15:01.019Z,70.20
2022-12-27T11:17:47.222Z,72.70
2022-12-27T11:20:24.285Z,73.90
2022-12-27T11:23:04.980Z,75.50
2022-12-27T11:25:31.959Z,76.50
2022-12-27T11:28:03.939Z,77.10
2022-12-27T11:30:34.912Z,78.00
2022-12-27T11:33:24.120Z,77.90
2022-12-27T11:35:54.243Z,78.50
2022-12-27T11:38:30.176Z,78.60
2022-12-27T11:41:10.957Z,79.50
2022-12-27T11:43:48.383Z,79.90
2022-12-27T11:46:53.911Z,80.10
2022-12-27T11:49:31.599Z,80.50
2022-12-27T11:52:08.299Z,81.40
2022-12-27T11:54:56.517Z,81.60
2022-12-27T11:57:29.216Z,82.10
2022-12-27T12:00:06.066Z,83.30
2022-12-27T12:03:13.984Z,83.60
2022-12-27T12:06:05.249Z,84.10
2022-12-27T12:08:56.901Z,84.40
2022-12-27T12:11:54.447Z,84.60
2022-12-27T12:14:33.851Z,84.80
2022-12-27T12:17:16.226Z,85.70
2022-12-27T12:20:04.631Z,85.60
2022-12-27T12:23:04.326Z,85.90
2022-12-27T12:26:02.863Z,86.10
2022-12-27T12:29:08.766Z,87.00
2022-12-27T12:31:57.170Z,87.60
2022-12-27T12:34:41.641Z,88.20
2022-12-27T12:37:19.149Z,87.40
2022-12-27T12:40:14.379Z,86.50
2022-12-27T12:42:52.769Z,86.80
2022-12-27T12:45:48.092Z,87.20
2022-12-27T12:49:09.180Z,88.00
2022-12-27T12:51:48.823Z,89.10
2022-12-27T12:54:30.514Z,89.60
2022-12-27T12:57:32.051Z,90.00
2022-12-27T13:00:23.517Z,90.60
2022-12-27T13:02:59.490Z,90.70
2022-12-27T13:06:36.569Z,90.10
2022-12-27T13:09:27.551Z,90.50
2022-12-27T13:12:04.872Z,91.20
2022-12-27T13:15:09.730Z,91.80
2022-12-27T13:17:58.330Z,91.60
2022-12-27T13:20:43.479Z,91.50
2022-12-27T13:23:31.826Z,91.40
2022-12-27T13:26:24.413Z,92.00
2022-12-27T13:29:21.449Z,92.40
2022-12-27T13:32:03.130Z,92.80
2022-12-27T13:34:47.248Z,92.80
2022-12-27T13:37:58.646Z,92.00
2022-12-27T13:40:48.167Z,92.00
2022-12-27T13:43:51.993Z,91.10
2022-12-27T13:46:42.463Z,91.80
2022-12-27T13:49:36.888Z,92.00
2022-12-27T13:52:30.668Z,91.50
2022-12-27T13:55:22.116Z,91.40
2022-12-27T13:57:59.777Z,90.80
2022-12-27T14:00:35.237Z,90.80
2022-12-27T14:03:33.061Z,90.20
2022-12-27T14:06:29.659Z,89.50
2022-12-27T14:09:10.438Z,89.70
2022-12-27T14:12:11.556Z,89.40
2022-12-27T14:14:41.264Z,89.80
2022-12-27T14:17:37.453Z,89.90
2022-12-27T14:20:13.709Z,90.50
2022-12-27T14:22:51.073Z,91.10
2022-12-27T14:26:03.463Z,90.70
2022-12-27T14:29:07.999Z,90.40
2022-12-27T14:31:46.164Z,90.40
2022-12-27T14:34:27.757Z,90.80
2022-12-27T14:37:22.099Z,91.50
2022-12-27T14:40:07.262Z,92.20
2022-12-27T14:43:19.323Z,91.20
2022-12-27T14:45:45.923Z,91.40
2022-12-27T14:48:49.554Z,91.80
2022-12-27T14:52:12.665Z,91.70
2022-12-27T14:55:17.638Z,91.30
2022-12-27T14:58:10.971Z,91.50
2022-12-27T15:01:12.894Z,91.50
2022-12-27T15:03:48.747Z,91.60
2022-12-27T15:06:52.285Z,91.90
2022-12-27T15:09:37.588Z,92.20
2022-12-27T15:12:41.914Z,92.50
2022-12-27T15:15:36.326Z,92.20
2022-12-27T15:18:17.286Z,93.00
2022-12-27T15:21:15.557Z,93.80
2022-12-27T15:23:47.858Z,93.70
2022-12-27T15:26:39.824Z,93.90
2022-12-27T15:29:31.033Z,94.70
2022-12-27T15:32:34.314Z,95.30
2022-12-27T15:35:35.468Z,95.60
2022-12-27T15:38:14.132Z,95.90
2022-12-27T15:40:54.177Z,96.00
2022-12-27T15:43:26.636Z,96.10
2022-12-27T15:46:17.934Z,96.20
2022-12-27T15:48:59.810Z,96.00
2022-12-27T15:51:42.578Z,95.80
2022-12-27T15:54:53.317Z,95.70
2022-12-27T15:58:07.961Z,96.30
2022-12-27T16:00:35.464Z,96.70
2022-12-27T16:03:23.606Z,96.90
2022-12-27T16:05:52.855Z,97.20
2022-12-27T16:08:32.784Z,97.10
2022-12-27T16:11:03.163Z,97.20
2022-12-27T16:13:46.650Z,97.50
2022-12-27T16:16:40.027Z,97.40
2022-12-27T16:19:40.702Z,97.50
2022-12-27T16:22:29.505Z,97.60
2022-12-27T16:24:57.488Z,97.60
2022-12-27T16:27:33.007Z,97.50
2022-12-27T16:30:00.202Z,97.10
2022-12-27T16:32:28.325Z,97.40
2022-12-27T16:35:14.153Z,97.50
2022-12-27T16:37:52.713Z,97.70
2022-12-27T16:40:37.848Z,97.50
2022-12-27T16:43:32.038Z,97.60
2022-12-27T16:46:18.573Z,96.80
2022-12-27T16:49:23.703Z,97.00
2022-12-27T16:52:13.213Z,97.50
2022-12-27T16:54:54.632Z,97.70
2022-12-27T16:57:25.715Z,97.20
2022-12-27T17:00:01.820Z,96.60
2022-12-27T17:02:36.910Z,96.70
2022-12-27T17:05:17.015Z,97.10
2022-12-27T17:07:52.833Z,97.60
2022-12-27T17:10:25.388Z,97.60
2022-12-27T17:13:07.886Z,97.90
2022-12-27T17:15:34.723Z,98.00
2022-12-27T17:18:14.021Z,97.80
2022-12-27T17:20:41.218Z,97.80
2022-12-27T17:23:11.716Z,97.60
2022-12-27T17:25:52.033Z,97.40
2022-12-27T17:28:28.647Z,97.50
2022-12-27T17:31:14.845Z,97.90
2022-12-27T17:33:53.599Z,97.80
2022-12-27T17:36:56.870Z,97.60
2022-12-27T17:39:51.553Z,97.90
2022-12-27T17:42:52.999Z,98.00
2022-12-27T17:45:55.635Z,98.20
2022-12-27T17:48:33.297Z,98.10
2022-12-27T17:51:10.307Z,97.60
2022-12-27T17:54:04.376Z,97.60
2022-12-27T17:57:04.883Z,97.30
2022-12-27T17:59:34.848Z,97.90
2022-12-27T18:02:22.733Z,97.70
2022-12-27T18:04:54.668Z,97.90
2022-12-27T18:07:30.213Z,97.70
2022-12-27T18:10:36.473Z,98.00
2022-12-27T18:13:06.107Z,98.30
2022-12-27T18:15:36.049Z,98.30
2022-12-27T18:18:06.347Z,97.90
2022-12-27T18:20:38.178Z,97.90
2022-12-27T18:23:05.420Z,98.30
2022-12-27T18:25:33.348Z,98.30
2022-12-27T18:28:32.264Z,97.90
2022-12-27T18:31:07.553Z,98.10
2022-12-27T18:33:38.617Z,97.80
2022-12-27T18:36:06.966Z,97.80
2022-12-27T18:38:46.318Z,98.00
2022-12-27T18:41:20.869Z,98.20
2022-12-27T18:43:52.224Z,97.70
2022-12-27T18:46:31.659Z,98.00
2022-12-27T18:48:59.269Z,98.00
2022-12-27T18:51:31.780Z,98.00
2022-12-27T18:53:58.491Z,98.30
2022-12-27T18:56:32.391Z,98.20
2022-12-27T18:59:28.620Z,98.00
2022-12-27T19:01:57.327Z,97.70
2022-12-27T19:04:27.758Z,97.90
2022-12-27T19:07:12.514Z,98.30
2022-12-27T19:09:48.851Z,98.30
2022-12-27T19:12:21.984Z,98.30
2022-12-27T19:14:49.399Z,98.30
2022-12-27T19:17:21.058Z,98.30
2022-12-27T19:19:50.758Z,98.30
2022-12-27T19:22:32.840Z,98.30
2022-12-27T19:25:06.024Z,98.30
2022-12-27T19:27:33.155Z,98.30
2022-12-27T19:29:59.885Z,98.30
2022-12-27T19:32:32.709Z,98.30
2022-12-27T19:35:01.946Z,98.30
2022-12-27T19:37:31.585Z,98.30
2022-12-27T19:39:59.160Z,98.30
2022-12-27T19:42:32.434Z,98.30
2022-12-27T19:44:59.793Z,97.60
2022-12-27T19:47:27.613Z,97.80
2022-12-27T19:49:54.313Z,98.10
2022-12-27T19:52:23.572Z,98.30
2022-12-27T19:54:52.677Z,97.90
2022-12-27T19:57:19.748Z,98.00
2022-12-27T19:59:46.436Z,97.90
2022-12-27T20:02:13.569Z,97.90
2022-12-27T20:04:40.356Z,97.90
2022-12-27T20:07:07.082Z,97.80
2022-12-27T20:09:33.766Z,97.90
2022-12-27T20:12:00.466Z,98.20
2022-12-27T20:14:27.158Z,98.20
2022-12-27T20:16:53.993Z,98.10
2022-12-27T20:19:21.603Z,98.00
2022-12-27T20:21:48.251Z,98.30
2022-12-27T20:24:15.003Z,98.30
2022-12-27T20:26:43.022Z,98.20
2022-12-27T20:29:11.055Z,98.30
2022-12-27T20:31:44.490Z,98.30
2022-12-27T20:34:12.879Z,97.90
2022-12-27T20:36:39.557Z,97.60
2022-12-27T20:39:07.264Z,97.80
2022-12-27T20:41:34.274Z,97.60
2022-12-27T20:44:01.093Z,98.00
2022-12-27T20:46:27.961Z,98.00
2022-12-27T20:48:56.301Z,97.60
2022-12-27T20:51:27.111Z,97.30
2022-12-27T20:53:59.294Z,97.50
2022-12-27T20:56:26.343Z,97.70
2022-12-27T20:58:53.080Z,97.80
2022-12-27T21:01:24.402Z,98.30
2022-12-27T21:03:51.581Z,98.30
2022-12-27T21:06:21.860Z,98.30
2022-12-27T21:08:56.272Z,98.30
2022-12-27T21:11:26.920Z,98.00
2022-12-27T21:13:54.005Z,97.80
2022-12-27T21:16:23.528Z,97.80
2022-12-27T21:18:50.826Z,97.70
2022-12-27T21:21:20.539Z,97.80
2022-12-27T21:23:48.369Z,97.40
2022-12-27T21:26:21.179Z,98.00
2022-12-27T21:28:48.424Z,97.90
2022-12-27T21:31:17.064Z,97.90
2022-12-27T21:33:44.570Z,98.30
2022-12-27T21:36:13.714Z,98.10
2022-12-27T21:38:41.201Z,97.60
2022-12-27T21:41:18.389Z,98.10
2022-12-27T21:43:46.771Z,98.30
2022-12-27T21:46:23.600Z,98.30
2022-12-27T21:48:55.692Z,98.30
2022-12-27T21:51:22.898Z,98.30
2022-12-27T21:53:49.695Z,98.30
2022-12-27T21:56:17.186Z,98.30
2022-12-27T21:58:44.852Z,98.30
2022-12-27T22:01:20.563Z,98.30
2022-12-27T22:03:50.005Z,98.30
2022-12-27T22:06:25.920Z,98.30
2022-12-27T22:08:55.045Z,98.10
2022-12-27T22:11:22.925Z,98.30
2022-12-27T22:13:50.153Z,98.30
2022-12-27T22:16:19.825Z,98.30
2022-12-27T22:18:47.380Z,98.30
2022-12-27T22:21:20.494Z,97.80
2022-12-27T22:23:48.872Z,97.70
2022-12-27T22:26:18.524Z,97.40
2022-12-27T22:28:56.653Z,97.50
2022-12-27T22:31:30.251Z,97.80
2022-12-27T22:33:57.187Z,97.70
2022-12-27T22:36:25.155Z,97.80
2022-12-27T22:38:53.601Z,98.00
2022-12-27T22:41:24.655Z,98.10
2022-12-27T22:43:54.078Z,98.30
2022-12-27T22:46:21.232Z,98.30
2022-12-27T22:48:52.886Z,98.30
2022-12-27T22:51:41.737Z,98.30
2022-12-27T22:54:18.423Z,98.30
2022-12-27T22:56:45.112Z,98.30
2022-12-27T22:59:14.195Z,98.30
2022-12-27T23:01:45.140Z,98.30
2022-12-27T23:04:22.879Z,98.30
2022-12-27T23:06:49.535Z,98.30
2022-12-27T23:09:16.395Z,98.30
2022-12-27T23:11:43.143Z,98.30
2022-12-27T23:14:33.069Z,98.30
2022-12-27T23:17:09.325Z,98.30
2022-12-27T23:19:36.224Z,97.60
2022-12-27T23:22:02.879Z,98.30
2022-12-27T23:24:36.758Z,98.30
2022-12-27T23:27:03.663Z,98.30
2022-12-27T23:29:30.395Z,98.30
2022-12-27T23:31:57.034Z,98.30
2022-12-27T23:34:28.102Z,98.30
2022-12-27T23:36:56.998Z,97.90
2022-12-27T23:39:23.709Z,98.30
2022-12-27T23:41:50.336Z,98.30
2022-12-27T23:44:32.866Z,98.30
2022-12-27T23:47:05.616Z,98.30
2022-12-27T23:49:32.776Z,97.90
2022-12-27T23:51:59.387Z,98.00
2022-12-27T23:54:26.091Z,98.00
2022-12-27T23:56:52.789Z,98.10
2022-12-27T23:59:19.531Z,98.10
